Time;durP1;ratioP1;P1;durP2;ratioP2;P2;SDS_P1;SDS_P2;PMS_P1;PMS_P2;Temp;Humidity;BMP_temperature;BMP_pressure;BME280_temperature;BME280_humidity;BME280_pressure;Samples;Min_cycle;Max_cycle;Signal;HPM_P1;HPM_P2
2022/11/27 00:01:39;;;;;;;30.17;15.05;;;;;;;;;;7395211;19;20015;-74
2022/11/27 00:04:06;;;;;;;29.75;14.73;;;;;;;;;;7395289;19;20002;-74
2022/11/27 00:06:32;;;;;;;28.27;15.85;;;;;;;;;;7396001;19;19998;-75
2022/11/27 00:08:59;;;;;;;26.10;14.38;;;;;;;;;;7400119;19;20352;-74
2022/11/27 00:11:26;;;;;;;25.40;13.32;;;;;;;;;;7406085;19;19999;-74
2022/11/27 00:13:52;;;;;;;34.75;14.32;;;;;;;;;;7404778;19;20002;-74
2022/11/27 00:16:18;;;;;;;31.98;14.93;;;;;;;;;;7399184;19;19998;-74
2022/11/27 00:18:44;;;;;;;27.90;15.68;;;;;;;;;;7398088;19;20336;-74
2022/11/27 00:21:21;;;;;;;25.85;14.10;;;;;;;;;;7397287;19;20065;-73
2022/11/27 00:23:46;;;;;;;29.45;15.32;;;;;;;;;;7397706;19;19998;-74
2022/11/27 00:26:12;;;;;;;28.85;15.60;;;;;;;;;;7396500;19;19999;-74
2022/11/27 00:28:37;;;;;;;28.83;15.93;;;;;;;;;;7394730;19;20005;-75
2022/11/27 00:31:06;;;;;;;32.28;15.95;;;;;;;;;;7396887;19;19995;-74
2022/11/27 00:33:31;;;;;;;33.00;15.95;;;;;;;;;;7395840;19;19998;-74
2022/11/27 00:36:04;;;;;;;31.30;15.85;;;;;;;;;;7400485;19;20027;-74
2022/11/27 00:38:29;;;;;;;28.63;16.40;;;;;;;;;;7393608;19;20027;-73
2022/11/27 00:41:07;;;;;;;29.38;15.70;;;;;;;;;;7396221;19;20003;-74
2022/11/27 00:43:34;;;;;;;28.15;14.85;;;;;;;;;;7394743;19;20003;-74
2022/11/27 00:46:00;;;;;;;28.20;14.77;;;;;;;;;;7396240;19;20010;-74
2022/11/27 00:48:25;;;;;;;28.52;15.77;;;;;;;;;;7391315;19;20341;-74
2022/11/27 00:50:50;;;;;;;33.83;16.38;;;;;;;;;;7395987;19;20028;-75
2022/11/27 00:53:16;;;;;;;27.80;15.05;;;;;;;;;;7395586;19;20485;-73
2022/11/27 00:55:41;;;;;;;31.95;15.60;;;;;;;;;;7395705;19;20005;-75
2022/11/27 00:58:07;;;;;;;30.80;15.65;;;;;;;;;;7392969;19;19998;-74
2022/11/27 01:00:32;;;;;;;30.70;15.23;;;;;;;;;;7395747;19;20011;-74
2022/11/27 01:02:57;;;;;;;32.97;16.25;;;;;;;;;;7395704;19;20040;-75
2022/11/27 01:05:23;;;;;;;30.05;15.60;;;;;;;;;;7394459;19;19999;-74
2022/11/27 01:07:48;;;;;;;30.52;15.35;;;;;;;;;;7391340;19;19999;-74
2022/11/27 01:10:14;;;;;;;31.13;15.10;;;;;;;;;;7394996;19;20409;-72
2022/11/27 01:12:39;;;;;;;31.20;15.48;;;;;;;;;;7395400;19;20460;-73
2022/11/27 01:15:05;;;;;;;31.35;15.55;;;;;;;;;;7391365;19;20029;-73
2022/11/27 01:17:30;;;;;;;31.60;14.30;;;;;;;;;;7392862;19;20002;-75
2022/11/27 01:19:55;;;;;;;27.52;15.73;;;;;;;;;;7395555;19;20002;-74
2022/11/27 01:22:21;;;;;;;29.45;15.43;;;;;;;;;;7390823;19;20017;-73
2022/11/27 01:24:46;;;;;;;29.13;16.00;;;;;;;;;;7391081;19;19999;-75
2022/11/27 01:27:12;;;;;;;27.67;15.45;;;;;;;;;;7393456;19;20023;-74
2022/11/27 01:29:37;;;;;;;28.83;14.65;;;;;;;;;;7394611;19;19994;-73
2022/11/27 01:32:03;;;;;;;33.25;14.48;;;;;;;;;;7394888;19;20460;-74
2022/11/27 01:34:28;;;;;;;26.42;13.80;;;;;;;;;;7393518;19;20013;-74
2022/11/27 01:36:54;;;;;;;27.17;14.93;;;;;;;;;;7393324;19;20023;-74
2022/11/27 01:39:20;;;;;;;26.50;14.23;;;;;;;;;;7394846;19;19994;-75
2022/11/27 01:41:47;;;;;;;26.55;14.32;;;;;;;;;;7394749;19;20120;-74
2022/11/27 01:44:24;;;;;;;26.52;13.98;;;;;;;;;;7393001;19;19995;-74
2022/11/27 01:47:04;;;;;;;26.75;14.68;;;;;;;;;;7393521;19;19994;-74
2022/11/27 01:49:33;;;;;;;25.63;14.38;;;;;;;;;;7397658;19;20003;-74
2022/11/27 01:52:02;;;;;;;26.08;13.60;;;;;;;;;;7394404;19;19994;-73
2022/11/27 01:54:36;;;;;;;27.38;14.77;;;;;;;;;;7391787;19;20030;-75
2022/11/27 01:57:06;;;;;;;29.55;14.38;;;;;;;;;;7391381;19;19994;-74
2022/11/27 01:59:32;;;;;;;28.55;14.57;;;;;;;;;;7393566;19;19998;-75
2022/11/27 02:01:59;;;;;;;24.83;13.70;;;;;;;;;;7392053;19;20082;-75
2022/11/27 02:04:24;;;;;;;26.52;14.32;;;;;;;;;;7393298;19;19995;-75
2022/11/27 02:06:50;;;;;;;31.65;15.18;;;;;;;;;;7393191;19;20002;-74
2022/11/27 02:09:15;;;;;;;31.13;15.48;;;;;;;;;;7395340;19;20006;-74
2022/11/27 02:11:54;;;;;;;27.98;14.10;;;;;;;;;;7396464;19;20001;-73
2022/11/27 02:14:24;;;;;;;32.97;15.85;;;;;;;;;;7396044;19;20034;-72
2022/11/27 02:17:05;;;;;;;31.20;14.88;;;;;;;;;;7394508;19;20006;-75
2022/11/27 02:20:06;;;;;;;28.40;15.03;;;;;;;;;;7393668;19;20119;-74
2022/11/27 02:22:45;;;;;;;23.83;14.00;;;;;;;;;;7392735;19;20244;-74
2022/11/27 02:25:46;;;;;;;28.75;14.43;;;;;;;;;;7393125;19;19991;-73
2022/11/27 02:28:30;;;;;;;31.45;15.50;;;;;;;;;;7388672;19;19998;-73
2022/11/27 02:31:18;;;;;;;28.80;13.43;;;;;;;;;;7392103;19;20002;-74
2022/11/27 02:33:51;;;;;;;21.45;10.60;;;;;;;;;;7392388;19;20025;-74
2022/11/27 02:36:21;;;;;;;23.65;11.52;;;;;;;;;;7392328;19;19998;-73
2022/11/27 02:38:54;;;;;;;21.63;10.45;;;;;;;;;;7391660;19;20009;-74
2022/11/27 02:41:32;;;;;;;18.45;8.80;;;;;;;;;;7389906;19;20064;-74
2022/11/27 02:43:59;;;;;;;20.38;9.07;;;;;;;;;;7392011;19;20009;-74
2022/11/27 02:46:27;;;;;;;19.75;8.05;;;;;;;;;;7390753;19;20014;-73
2022/11/27 02:48:56;;;;;;;16.05;8.00;;;;;;;;;;7390744;19;19998;-73
2022/11/27 02:51:27;;;;;;;22.55;8.18;;;;;;;;;;7389551;19;20492;-73
2022/11/27 02:54:00;;;;;;;18.83;6.82;;;;;;;;;;7390736;19;19998;-73
2022/11/27 02:56:27;;;;;;;16.70;7.25;;;;;;;;;;7390422;19;20044;-74
2022/11/27 02:58:56;;;;;;;20.25;8.10;;;;;;;;;;7391608;19;20005;-74
2022/11/27 03:01:22;;;;;;;20.38;9.02;;;;;;;;;;7391328;19;19990;-74
2022/11/27 03:03:52;;;;;;;18.70;7.72;;;;;;;;;;7391037;19;19995;-74
2022/11/27 03:06:33;;;;;;;15.65;7.63;;;;;;;;;;7390658;19;19995;-74
2022/11/27 03:09:09;;;;;;;15.48;7.13;;;;;;;;;;7391275;19;20365;-74
2022/11/27 03:11:35;;;;;;;13.35;6.80;;;;;;;;;;7389961;19;20002;-74
2022/11/27 03:14:05;;;;;;;16.30;7.55;;;;;;;;;;7390233;19;19999;-74
2022/11/27 03:17:09;;;;;;;17.80;7.25;;;;;;;;;;7388373;19;20062;-74
2022/11/27 03:19:44;;;;;;;22.98;7.88;;;;;;;;;;7390448;19;20050;-74
2022/11/27 03:22:10;;;;;;;17.15;8.07;;;;;;;;;;7390578;19;20003;-74
2022/11/27 03:24:35;;;;;;;17.15;7.82;;;;;;;;;;7390812;19;20029;-74
2022/11/27 03:27:02;;;;;;;21.25;8.05;;;;;;;;;;7389208;19;19998;-74
2022/11/27 03:29:45;;;;;;;18.90;8.63;;;;;;;;;;7391869;19;20054;-74
2022/11/27 03:32:11;;;;;;;13.73;7.60;;;;;;;;;;7398383;19;20373;-74
2022/11/27 03:34:37;;;;;;;25.33;9.02;;;;;;;;;;7396727;19;20006;-74
2022/11/27 03:37:04;;;;;;;18.17;8.35;;;;;;;;;;7395078;19;20078;-74
2022/11/27 03:39:30;;;;;;;16.33;7.47;;;;;;;;;;7396403;19;20470;-76
2022/11/27 03:42:11;;;;;;;20.15;8.48;;;;;;;;;;7397746;19;20459;-74
2022/11/27 03:44:56;;;;;;;19.30;7.50;;;;;;;;;;7402252;19;19998;-75
2022/11/27 03:47:27;;;;;;;15.38;7.68;;;;;;;;;;7394186;19;20263;-74
2022/11/27 03:50:16;;;;;;;17.58;7.70;;;;;;;;;;7401849;19;19995;-74
2022/11/27 03:53:08;;;;;;;14.63;7.45;;;;;;;;;;7395932;19;20329;-74
2022/11/27 03:55:52;;;;;;;20.30;8.10;;;;;;;;;;7394577;19;20453;-74
2022/11/27 03:58:26;;;;;;;17.00;7.53;;;;;;;;;;7393274;19;20029;-74
2022/11/27 04:00:53;;;;;;;14.43;7.88;;;;;;;;;;7397371;19;20058;-74
2022/11/27 04:03:24;;;;;;;19.73;7.72;;;;;;;;;;7396876;19;19999;-75
2022/11/27 04:05:49;;;;;;;15.85;8.50;;;;;;;;;;7396880;19;19995;-74
2022/11/27 04:08:15;;;;;;;21.27;7.97;;;;;;;;;;7393739;19;20001;-74
2022/11/27 04:10:40;;;;;;;17.70;7.68;;;;;;;;;;7395488;19;19995;-74
2022/11/27 04:13:05;;;;;;;17.08;7.47;;;;;;;;;;7396901;19;20002;-74
2022/11/27 04:15:31;;;;;;;12.50;5.50;;;;;;;;;;7392103;19;20026;-74
2022/11/27 04:17:56;;;;;;;18.15;8.32;;;;;;;;;;7393113;19;20070;-75
2022/11/27 04:20:21;;;;;;;16.25;7.90;;;;;;;;;;7396415;19;19986;-74
2022/11/27 04:22:47;;;;;;;17.60;8.60;;;;;;;;;;7397224;19;20088;-74
2022/11/27 04:25:12;;;;;;;21.52;8.60;;;;;;;;;;7395888;19;19998;-75
2022/11/27 04:27:37;;;;;;;19.15;8.45;;;;;;;;;;7393894;19;20006;-74
2022/11/27 04:30:03;;;;;;;18.52;8.82;;;;;;;;;;7395909;19;20015;-74
2022/11/27 04:32:29;;;;;;;20.73;8.57;;;;;;;;;;7394656;19;19999;-74
2022/11/27 04:34:54;;;;;;;19.17;8.85;;;;;;;;;;7394036;19;19995;-74
2022/11/27 04:37:19;;;;;;;18.55;8.63;;;;;;;;;;7394167;19;20022;-74
2022/11/27 04:39:44;;;;;;;25.45;8.90;;;;;;;;;;7395740;19;20211;-74
2022/11/27 04:42:10;;;;;;;17.48;8.90;;;;;;;;;;7393941;19;20014;-74
2022/11/27 04:44:35;;;;;;;18.60;8.52;;;;;;;;;;7395827;19;20463;-74
2022/11/27 04:47:01;;;;;;;21.13;8.52;;;;;;;;;;7394103;19;19995;-74
2022/11/27 04:49:26;;;;;;;19.05;8.80;;;;;;;;;;7395142;19;19996;-74
2022/11/27 04:51:52;;;;;;;21.48;8.70;;;;;;;;;;7395393;19;20452;-74
2022/11/27 04:54:17;;;;;;;19.90;8.88;;;;;;;;;;7392257;19;20001;-75
2022/11/27 04:56:42;;;;;;;19.38;8.98;;;;;;;;;;7394482;19;19998;-74
2022/11/27 04:59:08;;;;;;;16.88;8.57;;;;;;;;;;7395510;19;20025;-74
2022/11/27 05:01:33;;;;;;;17.95;9.27;;;;;;;;;;7395305;19;20383;-74
2022/11/27 05:03:58;;;;;;;17.95;8.95;;;;;;;;;;7394698;19;20454;-74
2022/11/27 05:06:24;;;;;;;21.80;8.95;;;;;;;;;;7394368;19;20001;-74
2022/11/27 05:08:49;;;;;;;15.52;8.27;;;;;;;;;;7395435;19;20006;-74
2022/11/27 05:11:16;;;;;;;22.00;8.93;;;;;;;;;;7393345;19;20357;-74
2022/11/27 05:13:42;;;;;;;17.83;9.18;;;;;;;;;;7394298;19;19999;-74
2022/11/27 05:16:09;;;;;;;22.02;8.73;;;;;;;;;;7395028;19;19995;-74
2022/11/27 05:18:34;;;;;;;20.50;8.45;;;;;;;;;;7391625;19;19995;-74
2022/11/27 05:21:06;;;;;;;17.20;8.45;;;;;;;;;;7393174;19;20058;-74
2022/11/27 05:23:33;;;;;;;16.40;8.02;;;;;;;;;;7394397;19;19999;-74
2022/11/27 05:25:59;;;;;;;16.48;8.18;;;;;;;;;;7392894;19;20387;-74
2022/11/27 05:28:25;;;;;;;19.52;9.38;;;;;;;;;;7391843;19;19994;-74
2022/11/27 05:30:50;;;;;;;22.02;9.23;;;;;;;;;;7394249;19;19998;-74
2022/11/27 05:33:17;;;;;;;19.17;9.63;;;;;;;;;;7393949;19;20451;-74
2022/11/27 05:35:44;;;;;;;19.08;9.02;;;;;;;;;;7391659;19;20025;-74
2022/11/27 05:38:09;;;;;;;22.40;9.32;;;;;;;;;;7391688;19;20034;-74
2022/11/27 05:40:35;;;;;;;19.05;9.15;;;;;;;;;;7394156;19;19995;-74
2022/11/27 05:43:00;;;;;;;18.80;9.48;;;;;;;;;;7393862;19;20416;-75
2022/11/27 05:45:25;;;;;;;21.58;8.30;;;;;;;;;;7393836;19;20001;-75
2022/11/27 05:47:51;;;;;;;19.98;9.07;;;;;;;;;;7393077;19;20062;-74
2022/11/27 05:50:16;;;;;;;18.60;8.70;;;;;;;;;;7396532;19;19995;-74
2022/11/27 05:52:41;;;;;;;20.45;9.68;;;;;;;;;;7391963;19;19991;-74
2022/11/27 05:55:07;;;;;;;17.00;8.18;;;;;;;;;;7391931;19;20010;-74
2022/11/27 05:57:33;;;;;;;18.63;8.85;;;;;;;;;;7391675;19;20019;-74
2022/11/27 05:59:58;;;;;;;19.40;9.75;;;;;;;;;;7393551;19;19994;-74
2022/11/27 06:02:24;;;;;;;20.55;9.27;;;;;;;;;;7393865;19;20480;-75
2022/11/27 06:04:49;;;;;;;29.00;9.57;;;;;;;;;;7391514;19;20003;-74
2022/11/27 06:07:15;;;;;;;21.05;9.18;;;;;;;;;;7391363;19;19998;-75
2022/11/27 06:09:40;;;;;;;24.13;10.75;;;;;;;;;;7393218;19;20018;-75
2022/11/27 06:12:06;;;;;;;23.63;10.65;;;;;;;;;;7393695;19;20102;-75
2022/11/27 06:14:33;;;;;;;28.40;9.93;;;;;;;;;;7394859;19;20099;-75
2022/11/27 06:17:02;;;;;;;18.50;9.75;;;;;;;;;;7395425;19;19998;-75
2022/11/27 06:19:27;;;;;;;21.95;10.13;;;;;;;;;;7394096;19;20001;-74
2022/11/27 06:21:53;;;;;;;26.77;10.30;;;;;;;;;;7392453;19;20003;-74
2022/11/27 06:24:19;;;;;;;15.90;7.43;;;;;;;;;;7392488;19;20002;-75
2022/11/27 06:26:44;;;;;;;24.13;7.97;;;;;;;;;;7391324;19;19999;-75
2022/11/27 06:29:09;;;;;;;14.65;7.00;;;;;;;;;;7392370;19;19995;-75
2022/11/27 06:31:35;;;;;;;16.48;7.57;;;;;;;;;;7392217;19;19999;-74
2022/11/27 06:34:01;;;;;;;14.48;7.28;;;;;;;;;;7391333;19;19999;-74
2022/11/27 06:36:30;;;;;;;19.20;7.68;;;;;;;;;;7389366;19;19999;-74
2022/11/27 06:38:55;;;;;;;18.98;7.38;;;;;;;;;;7390295;19;20448;-75
2022/11/27 06:41:23;;;;;;;18.85;7.40;;;;;;;;;;7391866;19;20001;-75
2022/11/27 06:43:49;;;;;;;15.57;7.43;;;;;;;;;;7391649;19;20003;-74
2022/11/27 06:46:17;;;;;;;18.45;7.35;;;;;;;;;;7391576;19;20023;-75
2022/11/27 06:48:43;;;;;;;15.10;7.55;;;;;;;;;;7389223;19;20029;-75
2022/11/27 06:51:11;;;;;;;21.20;8.00;;;;;;;;;;7391428;19;20519;-75
2022/11/27 06:53:37;;;;;;;19.77;8.30;;;;;;;;;;7390987;19;20002;-75
2022/11/27 06:56:08;;;;;;;19.55;8.43;;;;;;;;;;7390936;19;20379;-75
2022/11/27 06:58:34;;;;;;;;;;;;;;;;;;7390345;19;20322;-74
2022/11/27 07:01:02;;;;;;;19.10;6.95;;;;;;;;;;7391128;19;19998;-75
2022/11/27 07:03:27;;;;;;;17.30;7.97;;;;;;;;;;7389442;19;19999;-75
2022/11/27 07:05:53;;;;;;;17.27;8.02;;;;;;;;;;7390080;19;20009;-75
2022/11/27 07:08:18;;;;;;;26.75;8.18;;;;;;;;;;7389130;19;20353;-75
2022/11/27 07:10:43;;;;;;;25.15;8.50;;;;;;;;;;7391046;19;20011;-74
2022/11/27 07:13:09;;;;;;;21.90;7.70;;;;;;;;;;7394954;19;20031;-74
2022/11/27 07:15:34;;;;;;;23.48;8.20;;;;;;;;;;7389094;19;20002;-74
2022/11/27 07:18:00;;;;;;;20.85;9.02;;;;;;;;;;7388802;19;20002;-75
2022/11/27 07:20:25;;;;;;;21.50;8.27;;;;;;;;;;7390762;19;20092;-73
2022/11/27 07:22:51;;;;;;;23.90;8.88;;;;;;;;;;7390808;19;20005;-74
2022/11/27 07:25:16;;;;;;;18.00;8.15;;;;;;;;;;7388890;19;19995;-74
2022/11/27 07:27:42;;;;;;;20.45;9.15;;;;;;;;;;7388935;19;20149;-75
2022/11/27 07:30:07;;;;;;;20.48;8.63;;;;;;;;;;7390319;19;19995;-74
2022/11/27 07:32:33;;;;;;;23.73;8.27;;;;;;;;;;7390087;19;19998;-74
2022/11/27 07:34:58;;;;;;;22.83;8.63;;;;;;;;;;7388944;19;19995;-74
2022/11/27 07:37:23;;;;;;;27.60;9.82;;;;;;;;;;7388687;19;20006;-74
2022/11/27 07:39:49;;;;;;;27.00;9.80;;;;;;;;;;7387161;19;19987;-74
2022/11/27 07:42:14;;;;;;;21.88;9.45;;;;;;;;;;7390275;19;20455;-75
2022/11/27 07:44:40;;;;;;;27.20;10.77;;;;;;;;;;7389898;19;19991;-75
2022/11/27 07:47:05;;;;;;;23.13;10.68;;;;;;;;;;7388592;19;20432;-75
2022/11/27 07:49:31;;;;;;;31.58;10.45;;;;;;;;;;7391149;19;20006;-75
2022/11/27 07:51:56;;;;;;;26.65;10.55;;;;;;;;;;7387346;19;19990;-74
2022/11/27 07:54:21;;;;;;;22.48;10.73;;;;;;;;;;7390826;19;20002;-74
2022/11/27 07:56:47;;;;;;;21.40;9.57;;;;;;;;;;7390280;19;20026;-75
2022/11/27 07:59:12;;;;;;;27.83;9.32;;;;;;;;;;7387938;19;20073;-74
2022/11/27 08:01:37;;;;;;;32.20;10.55;;;;;;;;;;7378221;19;20459;-74
2022/11/27 08:04:02;;;;;;;48.35;11.05;;;;;;;;;;7387572;19;20103;-74
2022/11/27 08:06:28;;;;;;;33.90;10.25;;;;;;;;;;7388248;19;19999;-73
2022/11/27 08:08:55;;;;;;;44.63;10.85;;;;;;;;;;7390553;19;20014;-74
2022/11/27 08:11:37;;;;;;;31.92;10.82;;;;;;;;;;7390229;19;20029;-73
2022/11/27 08:14:06;;;;;;;26.88;10.27;;;;;;;;;;7391617;19;19998;-74
2022/11/27 08:16:33;;;;;;;26.48;9.75;;;;;;;;;;7387299;19;20012;-75
2022/11/27 08:18:59;;;;;;;31.98;10.43;;;;;;;;;;7393943;19;20007;-75
2022/11/27 08:21:25;;;;;;;34.05;11.90;;;;;;;;;;7398794;19;19994;-75
2022/11/27 08:23:51;;;;;;;35.90;15.15;;;;;;;;;;7396759;19;20424;-74
2022/11/27 08:26:16;;;;;;;46.15;11.93;;;;;;;;;;7395504;19;20005;-75
2022/11/27 08:28:42;;;;;;;30.67;11.02;;;;;;;;;;7393726;19;20391;-75
2022/11/27 08:31:09;;;;;;;27.60;10.45;;;;;;;;;;7396475;19;20499;-73
2022/11/27 08:33:35;;;;;;;39.38;11.18;;;;;;;;;;7396822;19;19999;-74
2022/11/27 08:36:01;;;;;;;31.48;11.75;;;;;;;;;;7396453;19;20008;-75
2022/11/27 08:38:27;;;;;;;33.85;10.32;;;;;;;;;;7394597;19;20398;-73
2022/11/27 08:40:54;;;;;;;29.30;11.25;;;;;;;;;;7399940;19;19995;-72
2022/11/27 08:43:19;;;;;;;46.22;11.70;;;;;;;;;;7396002;19;19999;-73
2022/11/27 08:45:44;;;;;;;34.90;11.23;;;;;;;;;;7395711;19;20007;-73
2022/11/27 08:48:10;;;;;;;33.65;11.68;;;;;;;;;;7392176;19;20070;-74
2022/11/27 08:50:36;;;;;;;45.15;12.65;;;;;;;;;;7400119;19;19994;-73
2022/11/27 08:53:01;;;;;;;37.45;12.18;;;;;;;;;;7397449;19;20018;-73
2022/11/27 08:55:27;;;;;;;29.85;11.02;;;;;;;;;;7397750;19;20342;-74
2022/11/27 08:57:52;;;;;;;37.72;9.98;;;;;;;;;;7393030;19;19999;-73
2022/11/27 09:00:18;;;;;;;33.40;11.18;;;;;;;;;;7394135;19;20411;-73
2022/11/27 09:02:43;;;;;;;28.60;11.02;;;;;;;;;;7397029;19;20045;-74
2022/11/27 09:05:09;;;;;;;30.58;11.63;;;;;;;;;;7398189;19;20002;-73
2022/11/27 09:07:34;;;;;;;28.85;11.40;;;;;;;;;;7397252;19;20023;-74
2022/11/27 09:09:59;;;;;;;28.85;10.43;;;;;;;;;;7398648;19;20006;-74
2022/11/27 09:12:26;;;;;;;30.92;11.70;;;;;;;;;;7397226;19;19998;-74
2022/11/27 09:14:51;;;;;;;26.08;11.32;;;;;;;;;;7393088;19;20018;-74
2022/11/27 09:17:17;;;;;;;31.65;10.35;;;;;;;;;;7396726;19;20110;-72
2022/11/27 09:19:42;;;;;;;30.25;10.60;;;;;;;;;;7398844;19;20199;-73
2022/11/27 09:22:08;;;;;;;28.52;11.35;;;;;;;;;;7397536;19;20002;-73
2022/11/27 09:24:35;;;;;;;30.17;10.98;;;;;;;;;;7387389;19;19995;-72
2022/11/27 09:27:00;;;;;;;22.45;9.25;;;;;;;;;;7387992;19;20006;-73
2022/11/27 09:29:25;;;;;;;26.92;8.65;;;;;;;;;;7391873;19;20347;-72
2022/11/27 09:31:51;;;;;;;34.65;9.75;;;;;;;;;;7392497;19;20006;-73
2022/11/27 09:34:17;;;;;;;21.60;9.75;;;;;;;;;;7388634;19;20032;-73
2022/11/27 09:36:42;;;;;;;28.15;9.93;;;;;;;;;;7392040;19;20431;-72
2022/11/27 09:39:08;;;;;;;30.60;9.63;;;;;;;;;;7388428;19;20015;-73
2022/11/27 09:41:38;;;;;;;28.83;10.30;;;;;;;;;;7393584;19;19994;-72
2022/11/27 09:44:22;;;;;;;28.70;10.20;;;;;;;;;;7392411;19;20002;-72
2022/11/27 09:46:49;;;;;;;26.10;10.02;;;;;;;;;;7390092;19;20341;-72
2022/11/27 09:49:27;;;;;;;25.33;9.20;;;;;;;;;;7390502;19;20459;-73
2022/11/27 09:52:02;;;;;;;24.92;10.43;;;;;;;;;;7392353;19;20464;-73
2022/11/27 09:54:35;;;;;;;30.88;10.20;;;;;;;;;;7392906;19;19998;-73
2022/11/27 09:57:01;;;;;;;23.60;9.52;;;;;;;;;;7389273;19;20006;-72
2022/11/27 09:59:35;;;;;;;29.25;11.57;;;;;;;;;;7393451;19;20026;-73
2022/11/27 10:02:00;;;;;;;29.90;10.93;;;;;;;;;;7389886;19;20002;-73
2022/11/27 10:04:25;;;;;;;33.40;11.45;;;;;;;;;;7391450;19;20507;-73
2022/11/27 10:06:57;;;;;;;28.45;10.95;;;;;;;;;;7389497;19;19999;-73
2022/11/27 10:09:36;;;;;;;;;;;;;;;;;;7392499;19;20524;-73
2022/11/27 10:12:04;;;;;;;27.30;9.48;;;;;;;;;;7390314;19;19987;-74
2022/11/27 10:14:45;;;;;;;25.90;10.48;;;;;;;;;;7392098;19;20445;-73
2022/11/27 10:17:19;;;;;;;26.05;10.07;;;;;;;;;;7381462;19;20452;-72
2022/11/27 10:19:50;;;;;;;30.17;11.23;;;;;;;;;;7391593;19;19999;-72
2022/11/27 10:22:24;;;;;;;;;;;;;;;;;;7388552;19;20002;-73
2022/11/27 10:25:17;;;;;;;22.17;9.35;;;;;;;;;;7390905;19;19913;-75
2022/11/27 10:27:59;;;;;;;30.00;11.10;;;;;;;;;;7387651;19;19994;-73
2022/11/27 10:30:25;;;;;;;24.70;10.25;;;;;;;;;;7392203;19;20001;-73
2022/11/27 10:32:54;;;;;;;25.77;10.23;;;;;;;;;;7391694;19;20058;-72
2022/11/27 10:35:24;;;;;;;28.70;10.15;;;;;;;;;;7388551;19;19999;-73
2022/11/27 10:38:10;;;;;;;29.95;12.77;;;;;;;;;;7388077;19;19998;-72
2022/11/27 10:40:48;;;;;;;23.50;10.43;;;;;;;;;;7391050;19;19994;-75
2022/11/27 10:43:19;;;;;;;29.98;11.02;;;;;;;;;;7396006;19;20051;-73
2022/11/27 10:46:07;;;;;;;26.42;10.93;;;;;;;;;;7391734;19;20015;-73
2022/11/27 10:48:33;;;;;;;25.38;10.88;;;;;;;;;;7389682;19;20642;-75
2022/11/27 10:50:59;;;;;;;29.20;11.02;;;;;;;;;;7391981;19;20002;-72
2022/11/27 10:53:35;;;;;;;26.52;10.77;;;;;;;;;;7392010;19;20002;-72
2022/11/27 10:56:10;;;;;;;24.27;10.63;;;;;;;;;;7389829;19;19999;-74
2022/11/27 10:58:45;;;;;;;27.38;10.55;;;;;;;;;;7389007;19;19995;-74
2022/11/27 11:01:14;;;;;;;29.90;10.10;;;;;;;;;;7391475;19;20029;-72
2022/11/27 11:03:39;;;;;;;24.48;10.70;;;;;;;;;;7395427;19;20008;-73
2022/11/27 11:06:15;;;;;;;25.95;10.43;;;;;;;;;;7391077;19;20341;-74
2022/11/27 11:08:40;;;;;;;21.30;8.95;;;;;;;;;;7391039;19;20440;-74
2022/11/27 11:11:07;;;;;;;27.88;9.55;;;;;;;;;;7389742;19;20015;-74
2022/11/27 11:13:45;;;;;;;21.67;9.52;;;;;;;;;;7392037;19;20008;-73
2022/11/27 11:16:11;;;;;;;24.73;10.07;;;;;;;;;;7391264;19;20024;-74
2022/11/27 11:18:43;;;;;;;24.65;11.05;;;;;;;;;;7386915;19;19995;-74
2022/11/27 11:21:16;;;;;;;26.45;9.73;;;;;;;;;;7386390;19;20003;-73
2022/11/27 11:23:41;;;;;;;21.40;9.32;;;;;;;;;;7385418;19;19999;-74
2022/11/27 11:26:30;;;;;;;23.15;8.88;;;;;;;;;;7389703;19;20002;-73
2022/11/27 11:28:58;;;;;;;19.40;9.60;;;;;;;;;;7384410;19;20003;-73
2022/11/27 11:31:36;;;;;;;20.55;9.45;;;;;;;;;;7389874;19;19997;-73
2022/11/27 11:34:10;;;;;;;28.75;12.57;;;;;;;;;;7388844;19;20003;-74
2022/11/27 11:36:37;;;;;;;21.85;8.18;;;;;;;;;;7389592;19;20002;-74
2022/11/27 11:39:02;;;;;;;18.58;8.60;;;;;;;;;;7390110;19;20002;-73
2022/11/27 11:41:37;;;;;;;21.02;8.52;;;;;;;;;;7386816;19;20456;-73
2022/11/27 11:44:03;;;;;;;18.48;8.57;;;;;;;;;;7388228;19;20002;-74
2022/11/27 11:46:32;;;;;;;23.95;11.32;;;;;;;;;;7384414;19;20018;-73
2022/11/27 11:49:00;;;;;;;20.35;8.50;;;;;;;;;;7388488;19;20007;-73
2022/11/27 11:51:34;;;;;;;18.08;8.98;;;;;;;;;;7389826;19;20010;-72
2022/11/27 11:54:38;;;;;;;20.50;8.95;;;;;;;;;;7396427;19;20002;-73
2022/11/27 11:57:24;;;;;;;19.35;9.15;;;;;;;;;;7392681;19;20067;-72
2022/11/27 12:00:02;;;;;;;20.50;8.90;;;;;;;;;;7394440;19;20030;-73
2022/11/27 12:02:41;;;;;;;19.98;9.50;;;;;;;;;;7394283;19;20002;-74
2022/11/27 12:05:19;;;;;;;21.35;9.00;;;;;;;;;;7396006;19;20062;-73
2022/11/27 12:07:51;;;;;;;21.52;10.70;;;;;;;;;;7394965;19;20392;-73
2022/11/27 12:10:31;;;;;;;19.73;9.48;;;;;;;;;;7396307;19;20010;-74
2022/11/27 12:13:28;;;;;;;20.90;9.45;;;;;;;;;;7396574;19;20400;-75
2022/11/27 12:16:16;;;;;;;15.05;8.20;;;;;;;;;;7391411;19;20035;-75
2022/11/27 12:18:41;;;;;;;16.52;8.43;;;;;;;;;;7387583;19;20015;-75
2022/11/27 12:21:41;;;;;;;16.35;8.85;;;;;;;;;;7394655;19;20006;-74
2022/11/27 12:24:26;;;;;;;20.48;9.27;;;;;;;;;;7392458;19;19998;-74
2022/11/27 12:27:23;;;;;;;19.27;8.82;;;;;;;;;;7394347;19;20017;-75
2022/11/27 12:30:09;;;;;;;18.90;9.23;;;;;;;;;;7394186;19;19999;-74
2022/11/27 12:33:04;;;;;;;21.75;8.73;;;;;;;;;;7395941;19;20006;-72
2022/11/27 12:35:55;;;;;;;19.45;9.35;;;;;;;;;;7392991;19;20039;-72
2022/11/27 12:38:47;;;;;;;;;;;;;;;;;;7389738;19;20043;-72
2022/11/27 12:41:21;;;;;;;;;;;;;;;;;;7393263;19;19944;-72
2022/11/27 12:43:51;;;;;;;17.15;8.75;;;;;;;;;;7393051;19;19918;-73
2022/11/27 12:46:25;;;;;;;17.65;8.77;;;;;;;;;;7391839;19;20361;-72
2022/11/27 12:48:54;;;;;;;18.92;9.10;;;;;;;;;;7393480;19;20030;-73
2022/11/27 12:51:25;;;;;;;18.42;9.27;;;;;;;;;;7389320;19;19999;-72
2022/11/27 12:54:11;;;;;;;16.15;8.52;;;;;;;;;;7390769;19;20018;-73
2022/11/27 12:56:44;;;;;;;18.73;8.90;;;;;;;;;;7388725;19;20037;-73
2022/11/27 12:59:39;;;;;;;20.40;8.88;;;;;;;;;;7388138;19;20021;-72
2022/11/27 13:02:27;;;;;;;20.50;9.95;;;;;;;;;;7391440;19;20040;-72
2022/11/27 13:05:01;;;;;;;18.92;8.60;;;;;;;;;;7391154;19;20348;-73
2022/11/27 13:07:37;;;;;;;17.45;9.35;;;;;;;;;;7390698;19;20010;-74
2022/11/27 13:10:08;;;;;;;17.50;9.48;;;;;;;;;;7392124;19;20004;-75
2022/11/27 13:12:38;;;;;;;;;;;;;;;;;;7393308;19;20006;-73
2022/11/27 13:15:15;;;;;;;18.75;8.65;;;;;;;;;;7390495;19;19983;-76
2022/11/27 13:17:48;;;;;;;19.33;9.38;;;;;;;;;;7389528;19;20062;-74
2022/11/27 13:20:18;;;;;;;16.20;8.57;;;;;;;;;;7390269;19;20480;-74
2022/11/27 13:22:46;;;;;;;19.93;10.67;;;;;;;;;;7390733;19;20495;-74
2022/11/27 13:25:16;;;;;;;20.75;9.43;;;;;;;;;;7389980;19;20019;-74
2022/11/27 13:27:48;;;;;;;20.55;10.35;;;;;;;;;;7389969;19;20002;-73
2022/11/27 13:30:23;;;;;;;22.80;8.93;;;;;;;;;;7387534;19;20010;-74
2022/11/27 13:32:53;;;;;;;15.98;8.45;;;;;;;;;;7390331;19;20016;-74
2022/11/27 13:35:24;;;;;;;18.42;8.85;;;;;;;;;;7388123;19;20433;-74
2022/11/27 13:37:57;;;;;;;21.17;9.48;;;;;;;;;;7388466;19;20349;-73
2022/11/27 13:40:30;;;;;;;17.20;9.35;;;;;;;;;;7390947;19;20510;-73
2022/11/27 13:43:11;;;;;;;18.83;8.88;;;;;;;;;;7389819;19;20015;-74
2022/11/27 13:45:36;;;;;;;18.40;10.07;;;;;;;;;;7391001;19;20007;-73
2022/11/27 13:48:19;;;;;;;19.58;9.20;;;;;;;;;;7385326;19;20464;-76
2022/11/27 13:50:45;;;;;;;17.33;8.63;;;;;;;;;;7251526;19;2753936;-75
2022/11/27 13:53:11;;;;;;;21.58;8.98;;;;;;;;;;7391627;19;20397;-75
2022/11/27 13:55:52;;;;;;;22.58;11.73;;;;;;;;;;7390419;19;19999;-76
2022/11/27 13:58:35;;;;;;;20.40;10.05;;;;;;;;;;7388290;19;20099;-75
2022/11/27 14:01:19;;;;;;;19.50;9.98;;;;;;;;;;7392304;19;20007;-74
2022/11/27 14:03:45;;;;;;;19.25;9.80;;;;;;;;;;7391752;19;20002;-75
2022/11/27 14:06:30;;;;;;;23.05;9.15;;;;;;;;;;7389965;19;20468;-75
2022/11/27 14:08:58;;;;;;;21.23;9.23;;;;;;;;;;7390247;19;20280;-74
2022/11/27 14:11:38;;;;;;;21.85;9.18;;;;;;;;;;7391531;19;20002;-74
2022/11/27 14:14:25;;;;;;;21.75;8.38;;;;;;;;;;7387363;19;20030;-74
2022/11/27 14:16:57;;;;;;;21.20;8.20;;;;;;;;;;7391034;19;20002;-74
2022/11/27 14:19:26;;;;;;;16.80;8.77;;;;;;;;;;7385537;19;20006;-73
2022/11/27 14:21:52;;;;;;;23.50;10.35;;;;;;;;;;7393072;19;19995;-74
2022/11/27 14:24:25;;;;;;;21.38;9.90;;;;;;;;;;7389040;19;19998;-74
2022/11/27 14:26:52;;;;;;;18.98;9.38;;;;;;;;;;7388727;19;20002;-74
2022/11/27 14:29:22;;;;;;;18.33;8.95;;;;;;;;;;7386809;19;20336;-74
2022/11/27 14:31:59;;;;;;;17.30;8.45;;;;;;;;;;7389544;19;20006;-74
2022/11/27 14:34:28;;;;;;;18.90;8.70;;;;;;;;;;7387568;19;19991;-74
2022/11/27 14:36:53;;;;;;;19.38;9.05;;;;;;;;;;7387359;19;19999;-75
2022/11/27 14:39:32;;;;;;;17.73;9.00;;;;;;;;;;7388701;19;20359;-74
2022/11/27 14:41:58;;;;;;;25.45;9.82;;;;;;;;;;7389959;19;20034;-74
2022/11/27 14:44:23;;;;;;;15.32;8.27;;;;;;;;;;7390506;19;20467;-75